sensor_id;sensor_type;location;lat;lon;timestamp;temperature;humidity
15879;DHT22;61999;51.514;14.614;2023-11-25T13:44:22;-5.60;99.90
15879;DHT22;61999;51.514;14.614;2023-11-25T13:46:50;-5.70;99.90
15879;DHT22;61999;51.514;14.614;2023-11-25T13:49:19;-5.20;99.90
15879;DHT22;61999;51.514;14.614;2023-11-25T13:51:47;-4.60;99.90
15879;DHT22;61999;51.514;14.614;2023-11-25T13:54:15;-4.10;99.90
15879;DHT22;61999;51.514;14.614;2023-11-25T13:56:43;-3.80;99.90
15879;DHT22;61999;51.514;14.614;2023-11-25T13:59:11;-3.70;99.90
15879;DHT22;61999;51.514;14.614;2023-11-25T14:01:40;-3.20;99.90
15879;DHT22;61999;51.514;14.614;2023-11-25T14:04:08;-3.10;99.90
15879;DHT22;61999;51.514;14.614;2023-11-25T14:06:36;-3.00;99.90
15879;DHT22;61999;51.514;14.614;2023-11-25T14:09:04;-2.80;99.90
15879;DHT22;61999;51.514;14.614;2023-11-25T14:11:32;-2.50;99.90
15879;DHT22;61999;51.514;14.614;2023-11-25T14:14:00;-2.20;99.90
15879;DHT22;61999;51.514;14.614;2023-11-25T14:16:28;-2.10;99.90
15879;DHT22;61999;51.514;14.614;2023-11-25T14:18:58;-2.00;99.90
15879;DHT22;61999;51.514;14.614;2023-11-25T14:21:26;-1.80;99.30
15879;DHT22;61999;51.514;14.614;2023-11-25T14:23:55;-1.80;98.80
15879;DHT22;61999;51.514;14.614;2023-11-25T14:26:22;-1.60;97.40
15879;DHT22;61999;51.514;14.614;2023-11-25T14:28:52;-1.40;96.30
15879;DHT22;61999;51.514;14.614;2023-11-25T14:31:21;-1.50;96.30
15879;DHT22;61999;51.514;14.614;2023-11-25T14:33:49;-1.50;95.80
15879;DHT22;61999;51.514;14.614;2023-11-25T14:36:18;-1.50;95.90
15879;DHT22;61999;51.514;14.614;2023-11-25T14:38:47;-1.50;95.70
15879;DHT22;61999;51.514;14.614;2023-11-25T14:41:20;-1.80;96.50
15879;DHT22;61999;51.514;14.614;2023-11-25T14:43:49;-1.80;96.50
15879;DHT22;61999;51.514;14.614;2023-11-25T14:46:17;-1.70;96.70
15879;DHT22;61999;51.514;14.614;2023-11-25T14:48:45;-1.50;95.30
15879;DHT22;61999;51.514;14.614;2023-11-25T14:51:14;-1.50;95.70
15879;DHT22;61999;51.514;14.614;2023-11-25T14:53:43;-1.40;94.90
15879;DHT22;61999;51.514;14.614;2023-11-25T14:56:11;-1.30;94.30
15879;DHT22;61999;51.514;14.614;2023-11-25T14:58:39;-1.50;94.50
15879;DHT22;61999;51.514;14.614;2023-11-25T15:01:08;-1.50;94.40
15879;DHT22;61999;51.514;14.614;2023-11-25T15:03:36;-1.50;94.20
15879;DHT22;61999;51.514;14.614;2023-11-25T15:06:06;-1.60;94.30
15879;DHT22;61999;51.514;14.614;2023-11-25T15:08:36;-1.60;94.20
15879;DHT22;61999;51.514;14.614;2023-11-25T15:11:06;-1.60;93.90
15879;DHT22;61999;51.514;14.614;2023-11-25T15:13:35;-1.80;94.50
15879;DHT22;61999;51.514;14.614;2023-11-25T15:16:04;-1.90;94.90
15879;DHT22;61999;51.514;14.614;2023-11-25T15:18:32;-1.70;94.60
15879;DHT22;61999;51.514;14.614;2023-11-25T15:21:00;-1.70;94.40
15879;DHT22;61999;51.514;14.614;2023-11-25T15:23:30;-1.80;94.60
15879;DHT22;61999;51.514;14.614;2023-11-25T15:25:58;-1.70;94.50
15879;DHT22;61999;51.514;14.614;2023-11-25T15:28:28;-1.80;94.60
15879;DHT22;61999;51.514;14.614;2023-11-25T15:30:56;-1.80;94.80
15879;DHT22;61999;51.514;14.614;2023-11-25T15:33:24;-1.70;94.50
15879;DHT22;61999;51.514;14.614;2023-11-25T15:35:52;-1.70;94.70
15879;DHT22;61999;51.514;14.614;2023-11-25T15:38:20;-1.70;94.50
15879;DHT22;61999;51.514;14.614;2023-11-25T15:40:48;-1.60;94.30
15879;DHT22;61999;51.514;14.614;2023-11-25T15:43:16;-1.70;94.40
15879;DHT22;61999;51.514;14.614;2023-11-25T15:45:46;-1.90;94.60
15879;DHT22;61999;51.514;14.614;2023-11-25T15:48:14;-1.70;94.60
15879;DHT22;61999;51.514;14.614;2023-11-25T15:50:42;-1.70;94.40
15879;DHT22;61999;51.514;14.614;2023-11-25T15:53:10;-1.80;94.70
15879;DHT22;61999;51.514;14.614;2023-11-25T15:55:39;-1.90;95.10
15879;DHT22;61999;51.514;14.614;2023-11-25T15:58:07;-1.90;95.40
15879;DHT22;61999;51.514;14.614;2023-11-25T16:00:39;-1.80;95.00
15879;DHT22;61999;51.514;14.614;2023-11-25T16:03:09;-1.80;95.10
15879;DHT22;61999;51.514;14.614;2023-11-25T16:05:37;-1.70;95.10
15879;DHT22;61999;51.514;14.614;2023-11-25T16:08:05;-1.60;94.40
15879;DHT22;61999;51.514;14.614;2023-11-25T16:10:34;-1.60;94.30
15879;DHT22;61999;51.514;14.614;2023-11-25T16:13:02;-1.70;94.60
15879;DHT22;61999;51.514;14.614;2023-11-25T16:15:30;-1.60;94.50
15879;DHT22;61999;51.514;14.614;2023-11-25T16:17:58;-1.30;93.70
15879;DHT22;61999;51.514;14.614;2023-11-25T16:20:28;-1.40;93.80
15879;DHT22;61999;51.514;14.614;2023-11-25T16:22:57;-1.50;93.90
15879;DHT22;61999;51.514;14.614;2023-11-25T16:25:25;-1.50;94.20
15879;DHT22;61999;51.514;14.614;2023-11-25T16:27:54;-1.50;93.90
15879;DHT22;61999;51.514;14.614;2023-11-25T16:30:22;-1.60;93.90
15879;DHT22;61999;51.514;14.614;2023-11-25T16:32:50;-1.60;94.00
15879;DHT22;61999;51.514;14.614;2023-11-25T16:35:19;-1.50;93.70
15879;DHT22;61999;51.514;14.614;2023-11-25T16:37:49;-1.50;93.60
15879;DHT22;61999;51.514;14.614;2023-11-25T16:40:18;-1.50;93.40
15879;DHT22;61999;51.514;14.614;2023-11-25T16:42:49;-1.60;93.80
15879;DHT22;61999;51.514;14.614;2023-11-25T16:45:17;-1.70;94.10
15879;DHT22;61999;51.514;14.614;2023-11-25T16:47:46;-1.80;94.20
15879;DHT22;61999;51.514;14.614;2023-11-25T16:50:15;-1.80;94.40
15879;DHT22;61999;51.514;14.614;2023-11-25T16:52:43;-1.80;94.50
15879;DHT22;61999;51.514;14.614;2023-11-25T16:55:12;-1.90;94.60
15879;DHT22;61999;51.514;14.614;2023-11-25T16:57:41;-1.90;94.60
15879;DHT22;61999;51.514;14.614;2023-11-25T17:00:11;-1.90;94.80
15879;DHT22;61999;51.514;14.614;2023-11-25T17:02:43;-2.00;95.00
15879;DHT22;61999;51.514;14.614;2023-11-25T17:05:11;-2.00;95.10
15879;DHT22;61999;51.514;14.614;2023-11-25T17:07:39;-2.00;95.50
15879;DHT22;61999;51.514;14.614;2023-11-25T17:10:07;-2.00;95.60
15879;DHT22;61999;51.514;14.614;2023-11-25T17:12:36;-1.90;95.70
15879;DHT22;61999;51.514;14.614;2023-11-25T17:15:05;-1.80;95.20
15879;DHT22;61999;51.514;14.614;2023-11-25T17:17:34;-1.70;95.20
15879;DHT22;61999;51.514;14.614;2023-11-25T17:20:06;-1.70;95.00
15879;DHT22;61999;51.514;14.614;2023-11-25T17:22:37;-1.70;95.00
15879;DHT22;61999;51.514;14.614;2023-11-25T17:25:05;-1.70;95.00
15879;DHT22;61999;51.514;14.614;2023-11-25T17:27:37;-1.70;94.80
15879;DHT22;61999;51.514;14.614;2023-11-25T17:30:06;-1.60;94.50
15879;DHT22;61999;51.514;14.614;2023-11-25T17:32:34;-1.60;94.40
15879;DHT22;61999;51.514;14.614;2023-11-25T17:35:02;-1.60;94.30
15879;DHT22;61999;51.514;14.614;2023-11-25T17:37:31;-1.70;94.50
15879;DHT22;61999;51.514;14.614;2023-11-25T17:39:59;-1.70;94.60
15879;DHT22;61999;51.514;14.614;2023-11-25T17:42:27;-1.60;94.10
15879;DHT22;61999;51.514;14.614;2023-11-25T17:44:57;-1.60;94.10
15879;DHT22;61999;51.514;14.614;2023-11-25T17:47:25;-1.50;93.90
15879;DHT22;61999;51.514;14.614;2023-11-25T17:49:52;-1.60;94.10
15879;DHT22;61999;51.514;14.614;2023-11-25T17:52:21;-1.60;94.20
15879;DHT22;61999;51.514;14.614;2023-11-25T17:54:49;-1.50;94.00
15879;DHT22;61999;51.514;14.614;2023-11-25T17:57:17;-1.50;93.90
15879;DHT22;61999;51.514;14.614;2023-11-25T17:59:45;-1.60;94.00
15879;DHT22;61999;51.514;14.614;2023-11-25T18:02:14;-1.60;94.10
15879;DHT22;61999;51.514;14.614;2023-11-25T18:04:42;-1.50;93.60
15879;DHT22;61999;51.514;14.614;2023-11-25T18:07:10;-1.50;93.70
15879;DHT22;61999;51.514;14.614;2023-11-25T18:09:38;-1.60;93.90
15879;DHT22;61999;51.514;14.614;2023-11-25T18:12:06;-1.60;94.10
15879;DHT22;61999;51.514;14.614;2023-11-25T18:14:34;-1.70;94.30
15879;DHT22;61999;51.514;14.614;2023-11-25T18:17:03;-1.70;94.40
15879;DHT22;61999;51.514;14.614;2023-11-25T18:19:32;-1.70;94.50
15879;DHT22;61999;51.514;14.614;2023-11-25T18:22:00;-1.40;93.40
15879;DHT22;61999;51.514;14.614;2023-11-25T18:24:28;-1.30;93.00
15879;DHT22;61999;51.514;14.614;2023-11-25T18:26:56;-1.30;92.60
15879;DHT22;61999;51.514;14.614;2023-11-25T18:29:24;-1.30;92.40
15879;DHT22;61999;51.514;14.614;2023-11-25T18:31:52;-1.40;92.60
15879;DHT22;61999;51.514;14.614;2023-11-25T18:34:21;-1.40;92.60
15879;DHT22;61999;51.514;14.614;2023-11-25T18:36:50;-1.40;92.60
15879;DHT22;61999;51.514;14.614;2023-11-25T18:39:18;-1.50;92.60
15879;DHT22;61999;51.514;14.614;2023-11-25T18:41:46;-1.50;92.70
15879;DHT22;61999;51.514;14.614;2023-11-25T18:44:14;-1.40;92.70
15879;DHT22;61999;51.514;14.614;2023-11-25T18:46:42;-1.40;92.50
15879;DHT22;61999;51.514;14.614;2023-11-25T18:49:10;-1.50;92.50
15879;DHT22;61999;51.514;14.614;2023-11-25T18:51:39;-1.40;92.40
15879;DHT22;61999;51.514;14.614;2023-11-25T18:54:09;-1.30;91.80
15879;DHT22;61999;51.514;14.614;2023-11-25T18:56:37;-1.10;91.10
15879;DHT22;61999;51.514;14.614;2023-11-25T18:59:05;-1.30;91.40
15879;DHT22;61999;51.514;14.614;2023-11-25T19:01:35;-1.50;91.80
15879;DHT22;61999;51.514;14.614;2023-11-25T19:04:05;-1.60;92.00
15879;DHT22;61999;51.514;14.614;2023-11-25T19:06:33;-1.60;91.90
15879;DHT22;61999;51.514;14.614;2023-11-25T19:09:02;-1.40;91.30
15879;DHT22;61999;51.514;14.614;2023-11-25T19:11:32;-1.50;91.50
15879;DHT22;61999;51.514;14.614;2023-11-25T19:14:01;-1.50;91.50
15879;DHT22;61999;51.514;14.614;2023-11-25T19:16:29;-1.60;91.70
15879;DHT22;61999;51.514;14.614;2023-11-25T19:18:57;-1.60;91.70
15879;DHT22;61999;51.514;14.614;2023-11-25T19:21:25;-1.50;91.10
15879;DHT22;61999;51.514;14.614;2023-11-25T19:23:53;-1.60;91.50
15879;DHT22;61999;51.514;14.614;2023-11-25T19:26:21;-1.70;91.70
15879;DHT22;61999;51.514;14.614;2023-11-25T19:28:52;-1.60;91.40
15879;DHT22;61999;51.514;14.614;2023-11-25T19:31:20;-1.60;91.70
15879;DHT22;61999;51.514;14.614;2023-11-25T19:33:50;-1.50;91.20
15879;DHT22;61999;51.514;14.614;2023-11-25T19:36:18;-1.70;91.70
15879;DHT22;61999;51.514;14.614;2023-11-25T19:38:46;-1.70;91.80
15879;DHT22;61999;51.514;14.614;2023-11-25T19:41:14;-1.70;91.90
15879;DHT22;61999;51.514;14.614;2023-11-25T19:43:42;-1.60;91.50
15879;DHT22;61999;51.514;14.614;2023-11-25T19:46:12;-1.70;91.70
15879;DHT22;61999;51.514;14.614;2023-11-25T19:48:40;-1.60;91.60
15879;DHT22;61999;51.514;14.614;2023-11-25T19:51:08;-1.60;91.60
15879;DHT22;61999;51.514;14.614;2023-11-25T19:53:37;-1.60;91.60
15879;DHT22;61999;51.514;14.614;2023-11-25T19:56:05;-1.70;91.90
15879;DHT22;61999;51.514;14.614;2023-11-25T19:58:33;-1.70;91.90
15879;DHT22;61999;51.514;14.614;2023-11-25T20:01:03;-1.70;92.20
15879;DHT22;61999;51.514;14.614;2023-11-25T20:03:32;-1.80;92.30
15879;DHT22;61999;51.514;14.614;2023-11-25T20:06:00;-1.70;92.40
15879;DHT22;61999;51.514;14.614;2023-11-25T20:08:28;-1.70;92.50
15879;DHT22;61999;51.514;14.614;2023-11-25T20:10:58;-1.70;92.30
15879;DHT22;61999;51.514;14.614;2023-11-25T20:13:29;-1.70;92.30
15879;DHT22;61999;51.514;14.614;2023-11-25T20:15:57;-1.70;92.40
15879;DHT22;61999;51.514;14.614;2023-11-25T20:18:25;-1.70;92.40
15879;DHT22;61999;51.514;14.614;2023-11-25T20:20:54;-1.80;92.60
15879;DHT22;61999;51.514;14.614;2023-11-25T20:23:22;-1.70;92.70
15879;DHT22;61999;51.514;14.614;2023-11-25T20:25:53;-1.70;92.80
15879;DHT22;61999;51.514;14.614;2023-11-25T20:28:21;-1.60;92.60
15879;DHT22;61999;51.514;14.614;2023-11-25T20:30:50;-1.40;92.00
15879;DHT22;61999;51.514;14.614;2023-11-25T20:33:18;-1.50;92.10
15879;DHT22;61999;51.514;14.614;2023-11-25T20:35:46;-1.50;92.00
15879;DHT22;61999;51.514;14.614;2023-11-25T20:38:16;-1.60;92.20
15879;DHT22;61999;51.514;14.614;2023-11-25T20:40:44;-1.50;91.70
15879;DHT22;61999;51.514;14.614;2023-11-25T20:43:12;-1.50;91.60
15879;DHT22;61999;51.514;14.614;2023-11-25T20:45:40;-1.50;91.50
15879;DHT22;61999;51.514;14.614;2023-11-25T20:48:08;-1.60;91.60
15879;DHT22;61999;51.514;14.614;2023-11-25T20:50:36;-1.60;91.80
15879;DHT22;61999;51.514;14.614;2023-11-25T20:53:06;-1.70;91.90
15879;DHT22;61999;51.514;14.614;2023-11-25T20:55:35;-1.70;92.10
15879;DHT22;61999;51.514;14.614;2023-11-25T20:58:05;-1.70;92.00
15879;DHT22;61999;51.514;14.614;2023-11-25T21:00:35;-1.60;91.70
15879;DHT22;61999;51.514;14.614;2023-11-25T21:03:04;-1.60;91.50
15879;DHT22;61999;51.514;14.614;2023-11-25T21:05:33;-1.60;91.40
15879;DHT22;61999;51.514;14.614;2023-11-25T21:08:01;-1.60;91.50
15879;DHT22;61999;51.514;14.614;2023-11-25T21:10:30;-1.60;91.50
15879;DHT22;61999;51.514;14.614;2023-11-25T21:12:59;-1.70;91.60
15879;DHT22;61999;51.514;14.614;2023-11-25T21:15:28;-1.70;91.40
15879;DHT22;61999;51.514;14.614;2023-11-25T21:17:56;-1.70;91.70
15879;DHT22;61999;51.514;14.614;2023-11-25T21:20:24;-1.70;91.50
15879;DHT22;61999;51.514;14.614;2023-11-25T21:22:52;-1.80;91.50
15879;DHT22;61999;51.514;14.614;2023-11-25T21:25:20;-1.80;91.50
15879;DHT22;61999;51.514;14.614;2023-11-25T21:27:48;-1.70;91.10
15879;DHT22;61999;51.514;14.614;2023-11-25T21:30:21;-1.70;91.10
15879;DHT22;61999;51.514;14.614;2023-11-25T21:32:49;-1.60;90.80
15879;DHT22;61999;51.514;14.614;2023-11-25T21:35:17;-1.70;90.60
15879;DHT22;61999;51.514;14.614;2023-11-25T21:37:45;-1.70;90.70
15879;DHT22;61999;51.514;14.614;2023-11-25T21:40:13;-1.60;90.60
15879;DHT22;61999;51.514;14.614;2023-11-25T21:42:42;-1.70;90.70
15879;DHT22;61999;51.514;14.614;2023-11-25T21:45:10;-1.70;90.50
15879;DHT22;61999;51.514;14.614;2023-11-25T21:47:39;-1.70;90.20
15879;DHT22;61999;51.514;14.614;2023-11-25T21:50:09;-1.70;90.30
15879;DHT22;61999;51.514;14.614;2023-11-25T21:52:37;-1.70;90.10
15879;DHT22;61999;51.514;14.614;2023-11-25T21:55:06;-1.70;90.20
15879;DHT22;61999;51.514;14.614;2023-11-25T21:57:35;-1.80;90.40
15879;DHT22;61999;51.514;14.614;2023-11-25T22:00:05;-1.70;90.30
15879;DHT22;61999;51.514;14.614;2023-11-25T22:02:36;-1.70;90.30
15879;DHT22;61999;51.514;14.614;2023-11-25T22:05:07;-1.70;90.30
15879;DHT22;61999;51.514;14.614;2023-11-25T22:07:37;-1.70;90.10
15879;DHT22;61999;51.514;14.614;2023-11-25T22:10:06;-1.70;90.10
15879;DHT22;61999;51.514;14.614;2023-11-25T22:12:41;-1.70;89.80
15879;DHT22;61999;51.514;14.614;2023-11-25T22:15:09;-1.70;90.00
15879;DHT22;61999;51.514;14.614;2023-11-25T22:17:37;-1.70;89.80
15879;DHT22;61999;51.514;14.614;2023-11-25T22:20:07;-1.70;89.70
15879;DHT22;61999;51.514;14.614;2023-11-25T22:22:36;-1.80;90.00
15879;DHT22;61999;51.514;14.614;2023-11-25T22:25:06;-1.80;90.10
15879;DHT22;61999;51.514;14.614;2023-11-25T22:27:38;-1.70;90.00
15879;DHT22;61999;51.514;14.614;2023-11-25T22:30:07;-1.70;90.00
15879;DHT22;61999;51.514;14.614;2023-11-25T22:32:38;-1.70;89.90
15879;DHT22;61999;51.514;14.614;2023-11-25T22:35:08;-1.70;90.00
15879;DHT22;61999;51.514;14.614;2023-11-25T22:37:36;-1.70;90.00
15879;DHT22;61999;51.514;14.614;2023-11-25T22:40:05;-1.60;89.60
15879;DHT22;61999;51.514;14.614;2023-11-25T22:42:34;-1.60;89.20
15879;DHT22;61999;51.514;14.614;2023-11-25T22:45:03;-1.60;89.30
15879;DHT22;61999;51.514;14.614;2023-11-25T22:47:32;-1.60;89.00
15879;DHT22;61999;51.514;14.614;2023-11-25T22:50:00;-1.50;88.90
15879;DHT22;61999;51.514;14.614;2023-11-25T22:52:30;-1.60;89.40
15879;DHT22;61999;51.514;14.614;2023-11-25T22:54:58;-1.60;89.30
15879;DHT22;61999;51.514;14.614;2023-11-25T22:57:26;-1.70;89.70
15879;DHT22;61999;51.514;14.614;2023-11-25T22:59:54;-1.60;89.50
15879;DHT22;61999;51.514;14.614;2023-11-25T23:02:22;-1.60;89.20
15879;DHT22;61999;51.514;14.614;2023-11-25T23:04:50;-1.60;89.20
15879;DHT22;61999;51.514;14.614;2023-11-25T23:07:18;-1.60;89.10
15879;DHT22;61999;51.514;14.614;2023-11-25T23:09:48;-1.60;88.80
15879;DHT22;61999;51.514;14.614;2023-11-25T23:12:16;-1.70;89.30
15879;DHT22;61999;51.514;14.614;2023-11-25T23:14:45;-1.60;89.20
15879;DHT22;61999;51.514;14.614;2023-11-25T23:17:13;-1.50;89.00
15879;DHT22;61999;51.514;14.614;2023-11-25T23:19:41;-1.70;89.50
15879;DHT22;61999;51.514;14.614;2023-11-25T23:22:09;-1.50;88.20
15879;DHT22;61999;51.514;14.614;2023-11-25T23:24:38;-1.30;86.60
15879;DHT22;61999;51.514;14.614;2023-11-25T23:27:08;-1.40;86.60
15879;DHT22;61999;51.514;14.614;2023-11-25T23:29:36;-1.50;87.40
15879;DHT22;61999;51.514;14.614;2023-11-25T23:32:04;-1.60;87.70
15879;DHT22;61999;51.514;14.614;2023-11-25T23:34:32;-1.40;86.50
15879;DHT22;61999;51.514;14.614;2023-11-25T23:37:00;-1.50;85.80
15879;DHT22;61999;51.514;14.614;2023-11-25T23:39:28;-1.50;85.80
15879;DHT22;61999;51.514;14.614;2023-11-25T23:41:56;-1.50;85.50
15879;DHT22;61999;51.514;14.614;2023-11-25T23:44:25;-1.60;85.90
15879;DHT22;61999;51.514;14.614;2023-11-25T23:46:53;-1.60;85.80
15879;DHT22;61999;51.514;14.614;2023-11-25T23:49:21;-1.60;85.80
15879;DHT22;61999;51.514;14.614;2023-11-25T23:51:49;-1.70;86.50
15879;DHT22;61999;51.514;14.614;2023-11-25T23:54:17;-1.70;85.80
15879;DHT22;61999;51.514;14.614;2023-11-25T23:56:45;-1.80;85.90
15879;DHT22;61999;51.514;14.614;2023-11-25T23:59:13;-1.70;86.00
